Pine Hills, Florida
Current Conditions -  °F | °C
As of 12:53 PM on Tuesday 21 Oct 2014 (Local Time) from KORL Reporting Station
Overcast Overcast  
Wind Chill: 29°   Ceiling: 3600
Heat Index: 32°   Visibility: 10mi
Dew Point: 21°   Wind: 5mph
Humidity: 59%   Direction: 170°S
Pressure: 29.95"   Gusts: NA
Location:  28.55°N, 81.45°W
Report Text: KORL 211653Z 17004KT 10SM BKN036 BKN047 OVC055 29/21 A2995 RMK AO2 SLP143 T02940206
Loading
Personal Weather Stations






























Interactive Weather Map
Tropical Storm Tracking
New forecast layout! Learn more

10-Day Weather Forecast

Advertisements
Track Severe Weather on mobile